sensor_id;sensor_type;location;lat;lon;timestamp;P1;durP1;ratioP1;P2;durP2;ratioP2
26578;SDS011;14227;47.674;19.320;2023-09-07T00:01:48;48.38;;;23.45;;
26578;SDS011;14227;47.674;19.320;2023-09-07T00:04:14;36.65;;;21.13;;
26578;SDS011;14227;47.674;19.320;2023-09-07T00:06:40;68.45;;;27.65;;
26578;SDS011;14227;47.674;19.320;2023-09-07T00:09:09;44.95;;;21.75;;
26578;SDS011;14227;47.674;19.320;2023-09-07T00:11:37;50.90;;;22.08;;
26578;SDS011;14227;47.674;19.320;2023-09-07T00:14:03;44.90;;;19.73;;
26578;SDS011;14227;47.674;19.320;2023-09-07T00:16:31;53.67;;;21.20;;
26578;SDS011;14227;47.674;19.320;2023-09-07T00:19:00;32.30;;;17.67;;
26578;SDS011;14227;47.674;19.320;2023-09-07T00:21:26;45.40;;;21.10;;
26578;SDS011;14227;47.674;19.320;2023-09-07T00:23:51;51.22;;;20.02;;
26578;SDS011;14227;47.674;19.320;2023-09-07T00:26:17;38.75;;;18.77;;
26578;SDS011;14227;47.674;19.320;2023-09-07T00:28:43;34.90;;;16.83;;
26578;SDS011;14227;47.674;19.320;2023-09-07T00:31:09;40.35;;;20.25;;
26578;SDS011;14227;47.674;19.320;2023-09-07T00:33:35;37.28;;;18.55;;
26578;SDS011;14227;47.674;19.320;2023-09-07T00:36:01;72.03;;;23.40;;
26578;SDS011;14227;47.674;19.320;2023-09-07T00:38:28;24.48;;;13.82;;
26578;SDS011;14227;47.674;19.320;2023-09-07T00:40:54;15.90;;;10.50;;
26578;SDS011;14227;47.674;19.320;2023-09-07T00:43:20;21.38;;;13.27;;
26578;SDS011;14227;47.674;19.320;2023-09-07T00:45:45;20.33;;;12.43;;
26578;SDS011;14227;47.674;19.320;2023-09-07T00:48:11;27.40;;;14.45;;
26578;SDS011;14227;47.674;19.320;2023-09-07T00:50:38;20.70;;;13.57;;
26578;SDS011;14227;47.674;19.320;2023-09-07T00:53:04;23.63;;;14.43;;
26578;SDS011;14227;47.674;19.320;2023-09-07T00:55:32;22.27;;;12.82;;
26578;SDS011;14227;47.674;19.320;2023-09-07T00:57:59;23.73;;;14.05;;
26578;SDS011;14227;47.674;19.320;2023-09-07T01:00:26;28.58;;;17.20;;
26578;SDS011;14227;47.674;19.320;2023-09-07T01:02:51;36.50;;;19.38;;
26578;SDS011;14227;47.674;19.320;2023-09-07T01:05:17;39.05;;;20.67;;
26578;SDS011;14227;47.674;19.320;2023-09-07T01:07:47;22.25;;;13.70;;
26578;SDS011;14227;47.674;19.320;2023-09-07T01:10:18;31.08;;;16.92;;
26578;SDS011;14227;47.674;19.320;2023-09-07T01:12:46;40.85;;;18.33;;
26578;SDS011;14227;47.674;19.320;2023-09-07T01:15:12;33.25;;;16.02;;
26578;SDS011;14227;47.674;19.320;2023-09-07T01:17:38;19.42;;;11.70;;
26578;SDS011;14227;47.674;19.320;2023-09-07T01:20:05;20.90;;;11.73;;
26578;SDS011;14227;47.674;19.320;2023-09-07T01:22:34;15.88;;;9.68;;
26578;SDS011;14227;47.674;19.320;2023-09-07T01:25:01;16.70;;;10.55;;
26578;SDS011;14227;47.674;19.320;2023-09-07T01:27:27;19.23;;;11.32;;
26578;SDS011;14227;47.674;19.320;2023-09-07T01:29:54;20.70;;;12.50;;
26578;SDS011;14227;47.674;19.320;2023-09-07T01:32:19;29.98;;;15.68;;
26578;SDS011;14227;47.674;19.320;2023-09-07T01:34:45;25.90;;;15.40;;
26578;SDS011;14227;47.674;19.320;2023-09-07T01:37:11;17.73;;;11.48;;
26578;SDS011;14227;47.674;19.320;2023-09-07T01:39:36;27.88;;;16.20;;
26578;SDS011;14227;47.674;19.320;2023-09-07T01:42:02;25.80;;;14.85;;
26578;SDS011;14227;47.674;19.320;2023-09-07T01:44:28;23.65;;;13.98;;
26578;SDS011;14227;47.674;19.320;2023-09-07T01:46:54;29.05;;;14.98;;
26578;SDS011;14227;47.674;19.320;2023-09-07T01:49:20;31.50;;;17.27;;
26578;SDS011;14227;47.674;19.320;2023-09-07T01:51:46;32.20;;;17.45;;
26578;SDS011;14227;47.674;19.320;2023-09-07T01:54:11;35.10;;;17.48;;
26578;SDS011;14227;47.674;19.320;2023-09-07T01:56:37;24.40;;;14.98;;
26578;SDS011;14227;47.674;19.320;2023-09-07T01:59:06;38.00;;;18.02;;
26578;SDS011;14227;47.674;19.320;2023-09-07T02:01:31;20.05;;;13.00;;
26578;SDS011;14227;47.674;19.320;2023-09-07T02:04:01;27.88;;;15.18;;
26578;SDS011;14227;47.674;19.320;2023-09-07T02:06:27;14.10;;;9.88;;
26578;SDS011;14227;47.674;19.320;2023-09-07T02:08:53;27.80;;;16.10;;
26578;SDS011;14227;47.674;19.320;2023-09-07T02:11:19;40.08;;;20.73;;
26578;SDS011;14227;47.674;19.320;2023-09-07T02:13:46;25.60;;;15.80;;
26578;SDS011;14227;47.674;19.320;2023-09-07T02:16:12;43.67;;;19.80;;
26578;SDS011;14227;47.674;19.320;2023-09-07T02:18:38;22.48;;;12.27;;
26578;SDS011;14227;47.674;19.320;2023-09-07T02:21:08;19.52;;;10.50;;
26578;SDS011;14227;47.674;19.320;2023-09-07T02:23:34;15.90;;;10.35;;
26578;SDS011;14227;47.674;19.320;2023-09-07T02:26:02;15.85;;;11.05;;
26578;SDS011;14227;47.674;19.320;2023-09-07T02:28:29;36.97;;;16.88;;
26578;SDS011;14227;47.674;19.320;2023-09-07T02:30:54;63.40;;;22.35;;
26578;SDS011;14227;47.674;19.320;2023-09-07T02:33:27;51.88;;;20.83;;
26578;SDS011;14227;47.674;19.320;2023-09-07T02:35:53;31.80;;;16.25;;
26578;SDS011;14227;47.674;19.320;2023-09-07T02:38:19;27.33;;;14.43;;
26578;SDS011;14227;47.674;19.320;2023-09-07T02:40:45;70.72;;;24.63;;
26578;SDS011;14227;47.674;19.320;2023-09-07T02:43:11;20.45;;;11.40;;
26578;SDS011;14227;47.674;19.320;2023-09-07T02:45:37;106.40;;;28.50;;
26578;SDS011;14227;47.674;19.320;2023-09-07T02:48:04;18.60;;;12.43;;
26578;SDS011;14227;47.674;19.320;2023-09-07T02:50:31;29.73;;;13.98;;
26578;SDS011;14227;47.674;19.320;2023-09-07T02:52:58;20.17;;;11.43;;
26578;SDS011;14227;47.674;19.320;2023-09-07T02:55:25;21.23;;;12.10;;
26578;SDS011;14227;47.674;19.320;2023-09-07T02:57:51;26.27;;;14.25;;
26578;SDS011;14227;47.674;19.320;2023-09-07T03:00:17;24.70;;;12.93;;
26578;SDS011;14227;47.674;19.320;2023-09-07T03:02:43;14.50;;;9.77;;
26578;SDS011;14227;47.674;19.320;2023-09-07T03:05:09;14.55;;;10.13;;
26578;SDS011;14227;47.674;19.320;2023-09-07T03:07:35;20.83;;;11.95;;
26578;SDS011;14227;47.674;19.320;2023-09-07T03:10:01;20.15;;;12.07;;
26578;SDS011;14227;47.674;19.320;2023-09-07T03:12:27;31.90;;;15.50;;
26578;SDS011;14227;47.674;19.320;2023-09-07T03:14:53;32.83;;;16.80;;
26578;SDS011;14227;47.674;19.320;2023-09-07T03:17:19;43.25;;;19.23;;
26578;SDS011;14227;47.674;19.320;2023-09-07T03:19:47;15.52;;;11.00;;
26578;SDS011;14227;47.674;19.320;2023-09-07T03:22:13;49.05;;;18.67;;
26578;SDS011;14227;47.674;19.320;2023-09-07T03:24:39;29.40;;;14.85;;
26578;SDS011;14227;47.674;19.320;2023-09-07T03:27:05;26.27;;;13.95;;
26578;SDS011;14227;47.674;19.320;2023-09-07T03:29:31;37.28;;;16.40;;
26578;SDS011;14227;47.674;19.320;2023-09-07T03:31:58;24.98;;;13.77;;
26578;SDS011;14227;47.674;19.320;2023-09-07T03:34:25;24.48;;;13.80;;
26578;SDS011;14227;47.674;19.320;2023-09-07T03:36:51;34.58;;;16.85;;
26578;SDS011;14227;47.674;19.320;2023-09-07T03:39:16;28.45;;;15.52;;
26578;SDS011;14227;47.674;19.320;2023-09-07T03:41:51;20.90;;;11.52;;
26578;SDS011;14227;47.674;19.320;2023-09-07T03:44:17;20.60;;;12.63;;
26578;SDS011;14227;47.674;19.320;2023-09-07T03:46:43;27.65;;;14.63;;
26578;SDS011;14227;47.674;19.320;2023-09-07T03:49:09;24.63;;;13.90;;
26578;SDS011;14227;47.674;19.320;2023-09-07T03:51:35;37.28;;;18.40;;
26578;SDS011;14227;47.674;19.320;2023-09-07T03:54:01;50.30;;;19.65;;
26578;SDS011;14227;47.674;19.320;2023-09-07T03:56:26;42.40;;;19.00;;
26578;SDS011;14227;47.674;19.320;2023-09-07T03:58:52;56.28;;;19.83;;
26578;SDS011;14227;47.674;19.320;2023-09-07T04:01:18;22.70;;;13.18;;
26578;SDS011;14227;47.674;19.320;2023-09-07T04:03:43;22.30;;;13.13;;
26578;SDS011;14227;47.674;19.320;2023-09-07T04:06:09;37.65;;;18.23;;
26578;SDS011;14227;47.674;19.320;2023-09-07T04:08:35;52.92;;;22.15;;
26578;SDS011;14227;47.674;19.320;2023-09-07T04:11:04;18.17;;;12.35;;
26578;SDS011;14227;47.674;19.320;2023-09-07T04:13:31;13.23;;;9.25;;
26578;SDS011;14227;47.674;19.320;2023-09-07T04:15:57;19.15;;;12.07;;
26578;SDS011;14227;47.674;19.320;2023-09-07T04:18:23;34.50;;;16.85;;
26578;SDS011;14227;47.674;19.320;2023-09-07T04:20:48;20.35;;;12.25;;
26578;SDS011;14227;47.674;19.320;2023-09-07T04:23:14;31.50;;;14.00;;
26578;SDS011;14227;47.674;19.320;2023-09-07T04:25:40;25.85;;;13.40;;
26578;SDS011;14227;47.674;19.320;2023-09-07T04:28:06;19.15;;;11.90;;
26578;SDS011;14227;47.674;19.320;2023-09-07T04:30:32;16.42;;;10.52;;
26578;SDS011;14227;47.674;19.320;2023-09-07T04:33:02;24.67;;;11.50;;
26578;SDS011;14227;47.674;19.320;2023-09-07T04:35:29;21.70;;;12.65;;
26578;SDS011;14227;47.674;19.320;2023-09-07T04:37:55;32.58;;;14.13;;
26578;SDS011;14227;47.674;19.320;2023-09-07T04:40:22;19.25;;;11.00;;
26578;SDS011;14227;47.674;19.320;2023-09-07T04:42:49;15.77;;;10.63;;
26578;SDS011;14227;47.674;19.320;2023-09-07T04:45:14;32.65;;;12.85;;
26578;SDS011;14227;47.674;19.320;2023-09-07T04:47:40;33.03;;;13.75;;
26578;SDS011;14227;47.674;19.320;2023-09-07T04:50:06;27.00;;;13.02;;
26578;SDS011;14227;47.674;19.320;2023-09-07T04:52:32;26.02;;;12.88;;
26578;SDS011;14227;47.674;19.320;2023-09-07T04:54:59;24.15;;;11.57;;
26578;SDS011;14227;47.674;19.320;2023-09-07T04:57:25;43.40;;;15.45;;
26578;SDS011;14227;47.674;19.320;2023-09-07T04:59:51;15.65;;;10.23;;
26578;SDS011;14227;47.674;19.320;2023-09-07T05:02:16;39.50;;;13.90;;
26578;SDS011;14227;47.674;19.320;2023-09-07T05:04:42;28.58;;;11.40;;
26578;SDS011;14227;47.674;19.320;2023-09-07T05:07:09;28.30;;;13.07;;
26578;SDS011;14227;47.674;19.320;2023-09-07T05:09:34;21.58;;;10.07;;
26578;SDS011;14227;47.674;19.320;2023-09-07T05:12:00;22.10;;;11.43;;
26578;SDS011;14227;47.674;19.320;2023-09-07T05:14:26;35.63;;;15.05;;
26578;SDS011;14227;47.674;19.320;2023-09-07T05:16:51;15.02;;;10.52;;
26578;SDS011;14227;47.674;19.320;2023-09-07T05:19:17;16.30;;;11.25;;
26578;SDS011;14227;47.674;19.320;2023-09-07T05:21:43;19.63;;;10.80;;
26578;SDS011;14227;47.674;19.320;2023-09-07T05:24:09;20.73;;;10.52;;
26578;SDS011;14227;47.674;19.320;2023-09-07T05:26:34;27.63;;;10.77;;
26578;SDS011;14227;47.674;19.320;2023-09-07T05:29:00;21.38;;;10.40;;
26578;SDS011;14227;47.674;19.320;2023-09-07T05:31:26;40.28;;;11.43;;
26578;SDS011;14227;47.674;19.320;2023-09-07T05:33:51;55.30;;;15.32;;
26578;SDS011;14227;47.674;19.320;2023-09-07T05:36:17;37.25;;;12.85;;
26578;SDS011;14227;47.674;19.320;2023-09-07T05:38:43;21.95;;;10.68;;
26578;SDS011;14227;47.674;19.320;2023-09-07T05:41:09;30.60;;;13.05;;
26578;SDS011;14227;47.674;19.320;2023-09-07T05:43:34;40.28;;;12.82;;
26578;SDS011;14227;47.674;19.320;2023-09-07T05:46:00;29.10;;;11.80;;
26578;SDS011;14227;47.674;19.320;2023-09-07T05:48:26;33.63;;;8.77;;
26578;SDS011;14227;47.674;19.320;2023-09-07T05:50:52;23.40;;;7.93;;
26578;SDS011;14227;47.674;19.320;2023-09-07T05:53:21;21.00;;;7.85;;
26578;SDS011;14227;47.674;19.320;2023-09-07T05:55:47;20.20;;;6.70;;
26578;SDS011;14227;47.674;19.320;2023-09-07T05:58:12;21.05;;;7.13;;
26578;SDS011;14227;47.674;19.320;2023-09-07T06:00:39;20.50;;;6.30;;
26578;SDS011;14227;47.674;19.320;2023-09-07T06:03:06;17.92;;;5.95;;
26578;SDS011;14227;47.674;19.320;2023-09-07T06:05:33;21.40;;;6.07;;
26578;SDS011;14227;47.674;19.320;2023-09-07T06:08:00;13.00;;;5.60;;
26578;SDS011;14227;47.674;19.320;2023-09-07T06:10:27;22.17;;;5.93;;
26578;SDS011;14227;47.674;19.320;2023-09-07T06:12:54;16.95;;;5.60;;
26578;SDS011;14227;47.674;19.320;2023-09-07T06:15:20;10.05;;;5.65;;
26578;SDS011;14227;47.674;19.320;2023-09-07T06:17:45;17.60;;;5.82;;
26578;SDS011;14227;47.674;19.320;2023-09-07T06:20:11;18.80;;;5.50;;
26578;SDS011;14227;47.674;19.320;2023-09-07T06:22:36;10.60;;;5.63;;
26578;SDS011;14227;47.674;19.320;2023-09-07T06:25:02;8.00;;;5.40;;
26578;SDS011;14227;47.674;19.320;2023-09-07T06:27:28;9.90;;;5.00;;
26578;SDS011;14227;47.674;19.320;2023-09-07T06:29:54;12.05;;;5.13;;
26578;SDS011;14227;47.674;19.320;2023-09-07T06:32:20;13.93;;;5.65;;
26578;SDS011;14227;47.674;19.320;2023-09-07T06:34:45;11.13;;;5.10;;
26578;SDS011;14227;47.674;19.320;2023-09-07T06:37:12;8.90;;;5.00;;
26578;SDS011;14227;47.674;19.320;2023-09-07T06:39:38;12.63;;;4.72;;
26578;SDS011;14227;47.674;19.320;2023-09-07T06:42:04;8.60;;;4.65;;
26578;SDS011;14227;47.674;19.320;2023-09-07T06:44:29;10.70;;;4.65;;
26578;SDS011;14227;47.674;19.320;2023-09-07T06:46:55;6.63;;;4.38;;
26578;SDS011;14227;47.674;19.320;2023-09-07T06:49:21;7.75;;;4.28;;
26578;SDS011;14227;47.674;19.320;2023-09-07T06:51:47;6.05;;;4.53;;
26578;SDS011;14227;47.674;19.320;2023-09-07T06:54:13;9.45;;;4.70;;
26578;SDS011;14227;47.674;19.320;2023-09-07T06:56:39;28.77;;;5.05;;
26578;SDS011;14227;47.674;19.320;2023-09-07T06:59:04;7.70;;;4.90;;
26578;SDS011;14227;47.674;19.320;2023-09-07T07:01:30;8.93;;;4.70;;
26578;SDS011;14227;47.674;19.320;2023-09-07T07:03:56;7.93;;;4.28;;
26578;SDS011;14227;47.674;19.320;2023-09-07T07:06:22;7.63;;;4.75;;
26578;SDS011;14227;47.674;19.320;2023-09-07T07:08:49;8.25;;;4.60;;
26578;SDS011;14227;47.674;19.320;2023-09-07T07:11:14;7.57;;;4.05;;
26578;SDS011;14227;47.674;19.320;2023-09-07T07:13:41;6.60;;;4.35;;
26578;SDS011;14227;47.674;19.320;2023-09-07T07:16:06;7.78;;;4.13;;
26578;SDS011;14227;47.674;19.320;2023-09-07T07:18:32;7.07;;;4.20;;
26578;SDS011;14227;47.674;19.320;2023-09-07T07:20:58;9.65;;;4.55;;
26578;SDS011;14227;47.674;19.320;2023-09-07T07:23:23;7.60;;;4.40;;
26578;SDS011;14227;47.674;19.320;2023-09-07T07:25:49;7.03;;;4.57;;
26578;SDS011;14227;47.674;19.320;2023-09-07T07:28:16;8.85;;;4.20;;
26578;SDS011;14227;47.674;19.320;2023-09-07T07:30:42;9.75;;;5.00;;
26578;SDS011;14227;47.674;19.320;2023-09-07T07:33:08;9.00;;;5.60;;
26578;SDS011;14227;47.674;19.320;2023-09-07T07:35:34;30.73;;;19.55;;
26578;SDS011;14227;47.674;19.320;2023-09-07T07:38:04;93.00;;;56.67;;
26578;SDS011;14227;47.674;19.320;2023-09-07T07:40:31;18.70;;;13.30;;
26578;SDS011;14227;47.674;19.320;2023-09-07T07:42:57;17.50;;;10.93;;
26578;SDS011;14227;47.674;19.320;2023-09-07T07:45:23;7.70;;;4.95;;
26578;SDS011;14227;47.674;19.320;2023-09-07T07:47:49;10.15;;;6.38;;
26578;SDS011;14227;47.674;19.320;2023-09-07T07:50:15;21.17;;;14.57;;
26578;SDS011;14227;47.674;19.320;2023-09-07T07:52:42;8.70;;;5.13;;
26578;SDS011;14227;47.674;19.320;2023-09-07T07:55:09;7.03;;;4.18;;
26578;SDS011;14227;47.674;19.320;2023-09-07T07:57:36;7.43;;;5.60;;
26578;SDS011;14227;47.674;19.320;2023-09-07T08:00:04;7.57;;;5.03;;
26578;SDS011;14227;47.674;19.320;2023-09-07T08:02:32;12.55;;;5.50;;
26578;SDS011;14227;47.674;19.320;2023-09-07T08:05:00;9.50;;;4.93;;
26578;SDS011;14227;47.674;19.320;2023-09-07T08:07:26;14.73;;;6.00;;
26578;SDS011;14227;47.674;19.320;2023-09-07T08:09:52;9.18;;;6.38;;
26578;SDS011;14227;47.674;19.320;2023-09-07T08:12:19;9.50;;;5.03;;
26578;SDS011;14227;47.674;19.320;2023-09-07T08:14:45;8.50;;;4.50;;
26578;SDS011;14227;47.674;19.320;2023-09-07T08:17:11;8.35;;;4.68;;
26578;SDS011;14227;47.674;19.320;2023-09-07T08:19:37;18.15;;;12.20;;
26578;SDS011;14227;47.674;19.320;2023-09-07T08:22:04;12.82;;;7.85;;
26578;SDS011;14227;47.674;19.320;2023-09-07T08:24:31;5.72;;;3.97;;
26578;SDS011;14227;47.674;19.320;2023-09-07T08:26:57;40.00;;;28.23;;
26578;SDS011;14227;47.674;19.320;2023-09-07T08:29:25;81.55;;;50.53;;
26578;SDS011;14227;47.674;19.320;2023-09-07T08:31:52;13.05;;;8.70;;
26578;SDS011;14227;47.674;19.320;2023-09-07T08:34:22;5.18;;;4.10;;
26578;SDS011;14227;47.674;19.320;2023-09-07T08:36:48;20.08;;;12.57;;
26578;SDS011;14227;47.674;19.320;2023-09-07T08:39:15;15.23;;;8.98;;
26578;SDS011;14227;47.674;19.320;2023-09-07T08:41:42;7.18;;;4.20;;
26578;SDS011;14227;47.674;19.320;2023-09-07T08:44:18;9.05;;;5.53;;
26578;SDS011;14227;47.674;19.320;2023-09-07T08:46:45;8.20;;;3.88;;
26578;SDS011;14227;47.674;19.320;2023-09-07T08:49:14;6.57;;;4.55;;
26578;SDS011;14227;47.674;19.320;2023-09-07T08:51:44;7.22;;;6.22;;
26578;SDS011;14227;47.674;19.320;2023-09-07T08:54:10;6.10;;;3.95;;
26578;SDS011;14227;47.674;19.320;2023-09-07T08:56:37;7.90;;;4.38;;
26578;SDS011;14227;47.674;19.320;2023-09-07T08:59:03;8.27;;;4.03;;
26578;SDS011;14227;47.674;19.320;2023-09-07T09:01:29;6.25;;;4.07;;
26578;SDS011;14227;47.674;19.320;2023-09-07T09:03:59;7.32;;;3.20;;
26578;SDS011;14227;47.674;19.320;2023-09-07T09:06:25;4.88;;;4.13;;
26578;SDS011;14227;47.674;19.320;2023-09-07T09:08:53;8.38;;;3.63;;
26578;SDS011;14227;47.674;19.320;2023-09-07T09:11:20;5.32;;;3.55;;
26578;SDS011;14227;47.674;19.320;2023-09-07T09:13:47;7.05;;;3.67;;
26578;SDS011;14227;47.674;19.320;2023-09-07T09:16:14;7.63;;;3.83;;
26578;SDS011;14227;47.674;19.320;2023-09-07T09:18:53;14.60;;;7.80;;
26578;SDS011;14227;47.674;19.320;2023-09-07T09:21:21;46.03;;;36.10;;
26578;SDS011;14227;47.674;19.320;2023-09-07T09:23:48;9.20;;;5.55;;
26578;SDS011;14227;47.674;19.320;2023-09-07T09:26:16;9.88;;;3.95;;
26578;SDS011;14227;47.674;19.320;2023-09-07T09:28:42;6.70;;;5.07;;
26578;SDS011;14227;47.674;19.320;2023-09-07T09:31:11;85.85;;;39.63;;
26578;SDS011;14227;47.674;19.320;2023-09-07T09:33:41;6.18;;;3.88;;
26578;SDS011;14227;47.674;19.320;2023-09-07T09:36:07;7.60;;;4.00;;
26578;SDS011;14227;47.674;19.320;2023-09-07T09:38:34;6.38;;;3.67;;
26578;SDS011;14227;47.674;19.320;2023-09-07T09:41:01;7.30;;;3.88;;
26578;SDS011;14227;47.674;19.320;2023-09-07T09:43:30;5.25;;;3.60;;
26578;SDS011;14227;47.674;19.320;2023-09-07T09:45:56;6.85;;;3.60;;
26578;SDS011;14227;47.674;19.320;2023-09-07T09:48:23;5.05;;;4.07;;
26578;SDS011;14227;47.674;19.320;2023-09-07T09:50:49;9.43;;;5.28;;
26578;SDS011;14227;47.674;19.320;2023-09-07T09:53:16;4.97;;;4.20;;
26578;SDS011;14227;47.674;19.320;2023-09-07T09:55:44;5.45;;;4.00;;
26578;SDS011;14227;47.674;19.320;2023-09-07T09:58:13;7.65;;;4.20;;
26578;SDS011;14227;47.674;19.320;2023-09-07T10:00:43;5.93;;;4.05;;
26578;SDS011;14227;47.674;19.320;2023-09-07T10:05:55;9.13;;;3.58;;
26578;SDS011;14227;47.674;19.320;2023-09-07T10:08:21;7.10;;;4.03;;
26578;SDS011;14227;47.674;19.320;2023-09-07T10:10:53;4.43;;;3.67;;
26578;SDS011;14227;47.674;19.320;2023-09-07T10:13:32;7.10;;;3.80;;
26578;SDS011;14227;47.674;19.320;2023-09-07T10:16:05;7.25;;;3.90;;
26578;SDS011;14227;47.674;19.320;2023-09-07T10:18:35;7.57;;;4.18;;
26578;SDS011;14227;47.674;19.320;2023-09-07T10:21:02;6.10;;;3.90;;
26578;SDS011;14227;47.674;19.320;2023-09-07T10:23:39;12.50;;;3.78;;
26578;SDS011;14227;47.674;19.320;2023-09-07T10:26:14;5.93;;;3.40;;
26578;SDS011;14227;47.674;19.320;2023-09-07T10:28:42;11.02;;;4.43;;
26578;SDS011;14227;47.674;19.320;2023-09-07T10:31:13;7.22;;;3.58;;
26578;SDS011;14227;47.674;19.320;2023-09-07T10:33:40;4.28;;;3.30;;
26578;SDS011;14227;47.674;19.320;2023-09-07T10:36:06;4.40;;;3.40;;
26578;SDS011;14227;47.674;19.320;2023-09-07T10:38:32;5.68;;;3.08;;
26578;SDS011;14227;47.674;19.320;2023-09-07T10:40:59;8.75;;;3.22;;
26578;SDS011;14227;47.674;19.320;2023-09-07T10:43:29;5.22;;;3.58;;
26578;SDS011;14227;47.674;19.320;2023-09-07T10:45:56;5.13;;;3.47;;
26578;SDS011;14227;47.674;19.320;2023-09-07T10:48:24;6.70;;;3.65;;
26578;SDS011;14227;47.674;19.320;2023-09-07T10:50:50;8.43;;;3.67;;
26578;SDS011;14227;47.674;19.320;2023-09-07T10:53:23;6.70;;;3.28;;
26578;SDS011;14227;47.674;19.320;2023-09-07T10:55:53;4.43;;;3.05;;
26578;SDS011;14227;47.674;19.320;2023-09-07T10:58:29;12.07;;;3.20;;
26578;SDS011;14227;47.674;19.320;2023-09-07T11:00:56;5.72;;;2.80;;
26578;SDS011;14227;47.674;19.320;2023-09-07T11:03:23;5.60;;;3.38;;
26578;SDS011;14227;47.674;19.320;2023-09-07T11:05:52;4.40;;;3.10;;
26578;SDS011;14227;47.674;19.320;2023-09-07T11:08:20;6.38;;;3.50;;
26578;SDS011;14227;47.674;19.320;2023-09-07T11:10:47;4.50;;;3.10;;
26578;SDS011;14227;47.674;19.320;2023-09-07T11:13:15;5.60;;;2.75;;
26578;SDS011;14227;47.674;19.320;2023-09-07T11:15:41;8.32;;;2.92;;
26578;SDS011;14227;47.674;19.320;2023-09-07T11:18:07;7.20;;;3.13;;
26578;SDS011;14227;47.674;19.320;2023-09-07T11:20:35;8.13;;;2.92;;
26578;SDS011;14227;47.674;19.320;2023-09-07T11:23:01;5.95;;;3.17;;
26578;SDS011;14227;47.674;19.320;2023-09-07T11:25:33;8.52;;;3.35;;
26578;SDS011;14227;47.674;19.320;2023-09-07T11:28:01;4.05;;;3.00;;
26578;SDS011;14227;47.674;19.320;2023-09-07T11:30:28;3.33;;;2.83;;
26578;SDS011;14227;47.674;19.320;2023-09-07T11:33:01;4.00;;;3.00;;
26578;SDS011;14227;47.674;19.320;2023-09-07T11:35:27;4.47;;;2.75;;
26578;SDS011;14227;47.674;19.320;2023-09-07T11:37:53;4.55;;;3.00;;
26578;SDS011;14227;47.674;19.320;2023-09-07T11:40:19;7.88;;;3.25;;
26578;SDS011;14227;47.674;19.320;2023-09-07T11:42:45;5.05;;;2.85;;
26578;SDS011;14227;47.674;19.320;2023-09-07T11:45:10;6.25;;;3.10;;
26578;SDS011;14227;47.674;19.320;2023-09-07T11:47:38;6.93;;;2.83;;
26578;SDS011;14227;47.674;19.320;2023-09-07T11:50:04;4.45;;;3.28;;
26578;SDS011;14227;47.674;19.320;2023-09-07T11:52:31;3.63;;;3.15;;
26578;SDS011;14227;47.674;19.320;2023-09-07T11:54:57;3.15;;;2.85;;
26578;SDS011;14227;47.674;19.320;2023-09-07T11:57:23;5.25;;;3.17;;
26578;SDS011;14227;47.674;19.320;2023-09-07T11:59:49;4.93;;;3.25;;
26578;SDS011;14227;47.674;19.320;2023-09-07T12:02:15;6.82;;;3.42;;
26578;SDS011;14227;47.674;19.320;2023-09-07T12:04:42;5.85;;;3.00;;
26578;SDS011;14227;47.674;19.320;2023-09-07T12:07:09;6.20;;;3.22;;
26578;SDS011;14227;47.674;19.320;2023-09-07T12:09:35;6.20;;;3.22;;
26578;SDS011;14227;47.674;19.320;2023-09-07T12:12:01;7.10;;;3.42;;
26578;SDS011;14227;47.674;19.320;2023-09-07T12:14:28;7.13;;;3.53;;
26578;SDS011;14227;47.674;19.320;2023-09-07T12:16:54;17.65;;;4.25;;
26578;SDS011;14227;47.674;19.320;2023-09-07T12:19:20;5.82;;;3.50;;
26578;SDS011;14227;47.674;19.320;2023-09-07T12:21:46;9.10;;;3.50;;
26578;SDS011;14227;47.674;19.320;2023-09-07T12:24:11;8.75;;;3.25;;
26578;SDS011;14227;47.674;19.320;2023-09-07T12:26:37;5.13;;;3.33;;
26578;SDS011;14227;47.674;19.320;2023-09-07T12:29:03;5.80;;;3.50;;
26578;SDS011;14227;47.674;19.320;2023-09-07T12:31:29;6.72;;;3.35;;
26578;SDS011;14227;47.674;19.320;2023-09-07T12:33:56;15.02;;;3.80;;
26578;SDS011;14227;47.674;19.320;2023-09-07T12:36:22;10.13;;;3.97;;
26578;SDS011;14227;47.674;19.320;2023-09-07T12:38:48;5.20;;;3.40;;
26578;SDS011;14227;47.674;19.320;2023-09-07T12:41:14;7.53;;;3.47;;
26578;SDS011;14227;47.674;19.320;2023-09-07T12:43:41;10.07;;;4.13;;
26578;SDS011;14227;47.674;19.320;2023-09-07T12:46:08;8.55;;;3.33;;
26578;SDS011;14227;47.674;19.320;2023-09-07T12:48:34;8.43;;;3.35;;
26578;SDS011;14227;47.674;19.320;2023-09-07T12:51:00;5.00;;;3.28;;
26578;SDS011;14227;47.674;19.320;2023-09-07T12:53:26;5.40;;;3.30;;
26578;SDS011;14227;47.674;19.320;2023-09-07T12:55:52;4.53;;;3.42;;
26578;SDS011;14227;47.674;19.320;2023-09-07T12:58:18;9.70;;;3.30;;
26578;SDS011;14227;47.674;19.320;2023-09-07T13:00:44;10.43;;;3.67;;
26578;SDS011;14227;47.674;19.320;2023-09-07T13:03:10;6.68;;;3.60;;
26578;SDS011;14227;47.674;19.320;2023-09-07T13:05:36;8.15;;;3.25;;
26578;SDS011;14227;47.674;19.320;2023-09-07T13:08:02;5.80;;;3.17;;
26578;SDS011;14227;47.674;19.320;2023-09-07T13:10:28;6.10;;;3.40;;
26578;SDS011;14227;47.674;19.320;2023-09-07T13:12:54;4.78;;;3.63;;
26578;SDS011;14227;47.674;19.320;2023-09-07T13:15:21;5.80;;;3.22;;
26578;SDS011;14227;47.674;19.320;2023-09-07T13:17:47;7.22;;;3.30;;
26578;SDS011;14227;47.674;19.320;2023-09-07T13:20:13;4.00;;;3.60;;
26578;SDS011;14227;47.674;19.320;2023-09-07T13:22:39;8.48;;;3.70;;
26578;SDS011;14227;47.674;19.320;2023-09-07T13:25:04;4.28;;;3.47;;
26578;SDS011;14227;47.674;19.320;2023-09-07T13:27:31;8.77;;;3.60;;
26578;SDS011;14227;47.674;19.320;2023-09-07T13:29:56;5.22;;;3.83;;
26578;SDS011;14227;47.674;19.320;2023-09-07T13:32:23;8.60;;;3.80;;
26578;SDS011;14227;47.674;19.320;2023-09-07T13:34:50;9.50;;;3.97;;
26578;SDS011;14227;47.674;19.320;2023-09-07T13:37:15;5.57;;;4.32;;
26578;SDS011;14227;47.674;19.320;2023-09-07T13:39:41;6.65;;;3.72;;
26578;SDS011;14227;47.674;19.320;2023-09-07T13:42:07;6.22;;;3.60;;
26578;SDS011;14227;47.674;19.320;2023-09-07T13:44:32;6.15;;;3.80;;
26578;SDS011;14227;47.674;19.320;2023-09-07T13:46:58;14.35;;;4.13;;
26578;SDS011;14227;47.674;19.320;2023-09-07T13:49:25;6.30;;;3.42;;
26578;SDS011;14227;47.674;19.320;2023-09-07T13:51:50;7.30;;;3.90;;
26578;SDS011;14227;47.674;19.320;2023-09-07T13:54:16;5.07;;;3.90;;
26578;SDS011;14227;47.674;19.320;2023-09-07T13:56:42;9.07;;;4.07;;
26578;SDS011;14227;47.674;19.320;2023-09-07T13:59:10;7.28;;;3.45;;
26578;SDS011;14227;47.674;19.320;2023-09-07T14:01:35;4.63;;;3.13;;
26578;SDS011;14227;47.674;19.320;2023-09-07T14:04:02;4.35;;;3.47;;
26578;SDS011;14227;47.674;19.320;2023-09-07T14:06:29;8.23;;;4.30;;
26578;SDS011;14227;47.674;19.320;2023-09-07T14:08:55;4.72;;;3.60;;
26578;SDS011;14227;47.674;19.320;2023-09-07T14:11:21;4.93;;;3.92;;
26578;SDS011;14227;47.674;19.320;2023-09-07T14:13:50;5.55;;;4.45;;
26578;SDS011;14227;47.674;19.320;2023-09-07T14:16:17;6.13;;;3.78;;
26578;SDS011;14227;47.674;19.320;2023-09-07T14:18:44;4.78;;;3.45;;
26578;SDS011;14227;47.674;19.320;2023-09-07T14:21:10;6.55;;;3.97;;